This is the latest recevied weather packets stored in our database for station/object YO6LRV-3. If no packets are shown the sender has not sent any weather packets the latest 10 day(s).
| Time | Temp. | Humidity | Pressure | Rain* | Wind** | Luminosity | Snow |
|---|---|---|---|---|---|---|---|
| 1777853167 | 10.56° C | 40% | 1017.6 hPa | - | - | - | - |
| 1777852267 | 10.56° C | 39% | 1017.6 hPa | - | - | - | - |
| 1777851367 | 10.56° C | 38% | 1017.5 hPa | - | - | - | - |
| 1777850467 | 11.11° C | 39% | 1017.8 hPa | - | - | - | - |
| 1777849566 | 11.11° C | 39% | 1017.8 hPa | - | - | - | - |
| 1777848666 | 11.11° C | 38% | 1017.7 hPa | - | - | - | - |
| 1777847766 | 11.67° C | 37% | 1017.8 hPa | - | - | - | - |
| 1777846866 | 11.67° C | 38% | 1017.9 hPa | - | - | - | - |
| 1777845066 | 11.67° C | 38% | 1018.1 hPa | - | - | - | - |
| 1777844166 | 12.22° C | 37% | 1018.1 hPa | - | - | - | - |
| 1777842365 | 12.22° C | 37% | 1018.2 hPa | - | - | - | - |
| 1777840565 | 12.78° C | 37% | 1018.2 hPa | - | - | - | - |
| 1777838765 | 13.33° C | 37% | 1018.1 hPa | - | - | - | - |
| 1777836964 | 13.33° C | 38% | 1018.1 hPa | - | - | - | - |
| 1777836064 | 13.89° C | 38% | 1018.1 hPa | - | - | - | - |
| 1777835167 | 13.89° C | 36% | 1018.1 hPa | - | - | - | - |
| 1777834267 | 13.33° C | 38% | 1017.2 hPa | - | - | - | - |
| 1777833366 | 13.89° C | 38% | 1018.1 hPa | - | - | - | - |
| 1777832466 | 14.44° C | 37% | 1018 hPa | - | - | - | - |
| 1777831566 | 14.44° C | 38% | 1017.8 hPa | - | - | - | - |
| 1777830666 | 15° C | 38% | 1017.8 hPa | - | - | - | - |
| 1777829766 | 15° C | 39% | 1017.8 hPa | - | - | - | - |
| 1777828866 | 15.56° C | 38% | 1017.8 hPa | - | - | - | - |
| 1777827966 | 15.56° C | 37% | 1017.8 hPa | - | - | - | - |
| 1777827065 | 16.11° C | 35% | 1017.9 hPa | - | - | - | - |
* Rain since midnight (hover to see other rain measurements)
** Current wind speed in m/s (hover to see current wind gust speed)